»·PEaware :: VIP318 KJAC-KRKS

VIP318 :: KJAC-KRKS

FLIGHT INFORMATION

Flight Status: Arrived
Operator:
Virtual Pilots Association (website)
More flights by this operator :: More flights under this callsign
Pilot: Chris B. (15698)
Aircraft: PIAGGIO P-180 AVANTI
(P180)
More flights by this aircraft type
Origin: KJAC Jackson Hole
United States
Destination: KRKS Rock Springs-Sweetwater
United States
More flights between these airports :: More routes between these airports
Route: +ALPIN2 KICNE IDECA V328 BPI V328 FETLI
File this flight plan on PilotEdge
Remarks:
Altitude:
(Current/Filed)
15,000ft
Speed:
(Current/Filed)
320kts
Departed: 06-Feb-18 09:29 AM
Arrived: 06-Feb-18 10:12 AM
Distance/Time
Traveled:
141nm/0:42
Distance/Time
To Go:
Arrived

Flight Plot

Page will automatically refresh every two minutes.

Flight plan parsing failed; only flown route is shown


Map Options




Map Legend


Flown Route
Filed Route
Departure Airport
Arrival Airport
Navaid (VOR, NDB)
Fix

Horizontal Profiles

Position Reports

Time Latitude Longitude Heading Altitude Ground
Speed
06-Feb-18 09:19 43.599055 -110.738974 285 6456ft 0kts
06-Feb-18 09:20 43.599055 -110.738974 285 6456ft 0kts
06-Feb-18 09:21 43.599055 -110.738974 285 6456ft 0kts
06-Feb-18 09:22 43.599055 -110.738974 285 6456ft 0kts
06-Feb-18 09:23 43.599055 -110.738974 285 6456ft 0kts
06-Feb-18 09:24 43.599055 -110.738974 285 6456ft 0kts
06-Feb-18 09:25 43.599055 -110.738974 285 6456ft 0kts
06-Feb-18 09:26 43.599055 -110.738974 285 6456ft 0kts
06-Feb-18 09:27 43.599055 -110.738973 285 6456ft 0kts
06-Feb-18 09:28 43.599024 -110.739202 214 6456ft 5kts
06-Feb-18 09:29 43.598913 -110.739927 306 6456ft 10kts
06-Feb-18 09:30 43.604098 -110.737745 19 6456ft 23kts
06-Feb-18 09:31 43.608874 -110.735403 19 6456ft 23kts
06-Feb-18 09:32 43.614932 -110.732573 344 6456ft 12kts
06-Feb-18 09:33 43.615095 -110.732748 278 6456ft 0kts
06-Feb-18 09:34 43.615095 -110.732750 278 6456ft 0kts
06-Feb-18 09:35 43.601566 -110.740395 199 6689ft 129kts
06-Feb-18 09:36 43.565233 -110.762887 210 8561ft 155kts
06-Feb-18 09:37 43.526894 -110.788994 211 10541ft 159kts
06-Feb-18 09:38 43.486917 -110.815205 212 12357ft 163kts
06-Feb-18 09:39 43.446614 -110.841342 212 13977ft 167kts
06-Feb-18 09:40 43.403103 -110.869622 211 14989ft 214kts
06-Feb-18 09:41 43.343913 -110.907735 209 14981ft 269kts
06-Feb-18 09:42 43.275796 -110.951456 209 14975ft 287kts
06-Feb-18 09:43 43.202930 -110.940199 136 14966ft 304kts
06-Feb-18 09:44 43.151648 -110.852450 123 14975ft 305kts
06-Feb-18 09:45 43.104599 -110.759650 122 14975ft 305kts
06-Feb-18 09:46 43.057496 -110.666066 122 15003ft 308kts
06-Feb-18 09:47 43.009908 -110.571746 122 15004ft 309kts
06-Feb-18 09:48 42.961378 -110.475866 122 14986ft 310kts
06-Feb-18 09:49 42.911294 -110.377217 122 14917ft 334kts
06-Feb-18 09:50 42.858204 -110.283096 143 14935ft 353kts
06-Feb-18 09:51 42.775119 -110.224909 157 14916ft 363kts
06-Feb-18 09:52 42.685303 -110.171505 157 14911ft 345kts
06-Feb-18 09:53 42.611009 -110.127781 157 14913ft 326kts
06-Feb-18 09:54 42.538832 -110.062780 140 14918ft 321kts
06-Feb-18 09:55 42.469836 -109.985745 139 14918ft 325kts
06-Feb-18 09:56 42.400468 -109.907933 139 14918ft 327kts
06-Feb-18 09:57 42.330975 -109.830181 139 14919ft 329kts
06-Feb-18 09:58 42.260680 -109.751765 139 14919ft 330kts
06-Feb-18 09:59 42.190147 -109.673292 140 14920ft 330kts
06-Feb-18 10:00 42.119058 -109.594485 140 14920ft 331kts
06-Feb-18 10:01 42.049058 -109.517097 140 14511ft 324kts
06-Feb-18 10:02 41.980179 -109.441163 140 13139ft 319kts
06-Feb-18 10:03 41.917053 -109.360387 118 11755ft 314kts
06-Feb-18 10:04 41.876922 -109.266219 118 10999ft 304kts
06-Feb-18 10:05 41.837942 -109.174012 118 10997ft 302kts
06-Feb-18 10:06 41.796963 -109.077346 118 10998ft 302kts
06-Feb-18 10:07 41.756137 -108.981361 118 10998ft 301kts
06-Feb-18 10:08 41.715513 -108.886034 119 10999ft 300kts
06-Feb-18 10:09 41.675906 -108.793579 119 11015ft 260kts
06-Feb-18 10:10 41.643273 -108.718638 129 10634ft 226kts
06-Feb-18 10:11 41.593789 -108.733965 227 9671ft 202kts
06-Feb-18 10:12 41.555543 -108.779464 230 9384ft 163kts
06-Feb-18 10:13 41.554990 -108.829206 281 9299ft 129kts
06-Feb-18 10:14 41.561792 -108.875211 283 9285ft 128kts
06-Feb-18 10:15 41.570258 -108.925459 282 8563ft 139kts
06-Feb-18 10:17 41.578888 -108.974971 281 7841ft 137kts
06-Feb-18 10:18 41.587561 -109.024341 280 7137ft 140kts
06-Feb-18 10:19 41.594775 -109.066316 283 6764ft 29kts
06-Feb-18 10:20 41.598228 -109.065881 43 6764ft 18kts
06-Feb-18 10:21 41.599224 -109.064074 315 6764ft 0kts
06-Feb-18 10:22 41.599224 -109.064074 315 6764ft 0kts

Navigation Log

Ident Type
Flight plan parsing failed, navigation log unavailable